createdAt,value
2022-10-13T00:00:39.154Z,1008.53
2022-10-13T00:01:39.129Z,1008.54
2022-10-13T00:02:39.119Z,1008.56
2022-10-13T00:03:39.109Z,1008.52
2022-10-13T00:04:39.094Z,1008.53
2022-10-13T00:05:39.085Z,1008.55
2022-10-13T00:06:39.076Z,1008.53
2022-10-13T00:07:39.064Z,1008.55
2022-10-13T00:08:39.058Z,1008.57
2022-10-13T00:09:39.043Z,1008.55
2022-10-13T00:10:39.034Z,1008.55
2022-10-13T00:11:39.024Z,1008.51
2022-10-13T00:12:39.021Z,1008.49
2022-10-13T00:13:39.007Z,1008.51
2022-10-13T00:14:38.997Z,1008.54
2022-10-13T00:15:38.980Z,1008.54
2022-10-13T00:16:38.971Z,1008.57
2022-10-13T00:17:38.959Z,1008.56
2022-10-13T00:18:38.947Z,1008.55
2022-10-13T00:19:38.981Z,1008.52
2022-10-13T00:20:38.935Z,1008.49
2022-10-13T00:21:38.916Z,1008.46
2022-10-13T00:22:38.907Z,1008.47
2022-10-13T00:23:38.895Z,1008.43
2022-10-13T00:24:38.883Z,1008.49
2022-10-13T00:25:38.875Z,1008.47
2022-10-13T00:26:38.868Z,1008.47
2022-10-13T00:27:38.852Z,1008.48
2022-10-13T00:28:38.841Z,1008.44
2022-10-13T00:29:38.828Z,1008.38
2022-10-13T00:30:38.818Z,1008.41
2022-10-13T00:31:38.815Z,1008.4
2022-10-13T00:32:38.798Z,1008.37
2022-10-13T00:33:38.790Z,1008.34
2022-10-13T00:34:38.780Z,1008.41
2022-10-13T00:35:38.772Z,1008.43
2022-10-13T00:36:38.757Z,1008.41
2022-10-13T00:37:38.744Z,1008.42
2022-10-13T00:38:38.745Z,1008.42
2022-10-13T00:39:38.725Z,1008.39
2022-10-13T00:40:38.717Z,1008.43
2022-10-13T00:41:38.708Z,1008.42
2022-10-13T00:42:38.693Z,1008.43
2022-10-13T00:43:38.684Z,1008.43
2022-10-13T00:44:38.682Z,1008.37
2022-10-13T00:45:38.668Z,1008.37
2022-10-13T00:46:38.660Z,1008.36
2022-10-13T00:47:38.644Z,1008.37
2022-10-13T00:48:38.638Z,1008.32
2022-10-13T00:49:38.620Z,1008.37
2022-10-13T00:50:38.622Z,1008.38
2022-10-13T00:51:38.605Z,1008.37
2022-10-13T00:52:38.595Z,1008.34
2022-10-13T00:53:38.578Z,1008.38
2022-10-13T00:54:38.570Z,1008.4
2022-10-13T00:55:38.557Z,1008.37
2022-10-13T00:56:38.553Z,1008.39
2022-10-13T00:57:38.546Z,1008.42
2022-10-13T00:58:38.534Z,1008.41
2022-10-13T00:59:38.519Z,1008.42
2022-10-13T01:00:38.507Z,1008.45
2022-10-13T01:01:38.493Z,1008.41
2022-10-13T01:02:38.485Z,1008.41
2022-10-13T01:03:38.478Z,1008.37
2022-10-13T01:04:38.467Z,1008.35
2022-10-13T01:05:38.449Z,1008.4
2022-10-13T01:06:38.442Z,1008.39
2022-10-13T01:07:38.469Z,1008.32
2022-10-13T01:08:38.422Z,1008.34
2022-10-13T01:09:38.437Z,1008.39
2022-10-13T01:10:38.394Z,1008.35
2022-10-13T01:11:38.390Z,1008.34
2022-10-13T01:12:38.394Z,1008.34
2022-10-13T01:13:38.393Z,1008.35
2022-10-13T01:14:38.354Z,1008.34
2022-10-13T01:15:38.399Z,1008.31
2022-10-13T01:16:38.334Z,1008.3
2022-10-13T01:17:38.361Z,1008.27
2022-10-13T01:18:38.344Z,1008.27
2022-10-13T01:19:38.310Z,1008.28
2022-10-13T01:20:38.289Z,1008.27
2022-10-13T01:21:38.355Z,1008.2
2022-10-13T01:22:38.309Z,1008.16
2022-10-13T01:23:38.286Z,1008.2
2022-10-13T01:24:38.268Z,1008.18
2022-10-13T01:25:38.279Z,1008.17
2022-10-13T01:26:38.238Z,1008.16
2022-10-13T01:27:38.244Z,1008.16
2022-10-13T01:28:38.206Z,1008.17
2022-10-13T01:29:38.225Z,1008.16
2022-10-13T01:30:38.186Z,1008.15
2022-10-13T01:31:38.175Z,1008.14
2022-10-13T01:32:38.166Z,1008.15
2022-10-13T01:33:38.152Z,1008.12
2022-10-13T01:34:38.141Z,1008.15
2022-10-13T01:35:38.137Z,1008.12
2022-10-13T01:36:38.119Z,1008.12
2022-10-13T01:37:38.116Z,1008.05
2022-10-13T01:38:38.102Z,1008.05
2022-10-13T01:39:38.087Z,1008.06
2022-10-13T01:40:38.083Z,1007.98
2022-10-13T01:41:38.069Z,1008.09
2022-10-13T01:42:38.053Z,1008.01
2022-10-13T01:43:38.046Z,1008.03
2022-10-13T01:44:38.037Z,1008
2022-10-13T01:45:38.020Z,1008.02
2022-10-13T01:46:38.010Z,1007.99
2022-10-13T01:47:38.021Z,1007.96
2022-10-13T01:48:38.492Z,1007.92
2022-10-13T01:49:37.981Z,1007.9
2022-10-13T01:50:37.977Z,1007.93
2022-10-13T01:51:37.961Z,1007.9
2022-10-13T01:52:37.964Z,1007.86
2022-10-13T01:53:37.948Z,1007.89
2022-10-13T01:54:37.939Z,1007.88
2022-10-13T01:55:37.923Z,1007.86
2022-10-13T01:56:37.958Z,1007.84
2022-10-13T01:57:37.940Z,1007.84
2022-10-13T01:58:37.885Z,1007.79
2022-10-13T01:59:37.931Z,1007.78
2022-10-13T02:00:37.860Z,1007.77
2022-10-13T02:01:37.883Z,1007.77
2022-10-13T02:02:37.839Z,1007.79
2022-10-13T02:03:37.865Z,1007.81
2022-10-13T02:04:37.940Z,1007.79
2022-10-13T02:05:37.808Z,1007.77
2022-10-13T02:06:37.797Z,1007.76
2022-10-13T02:07:37.788Z,1007.79
2022-10-13T02:08:37.789Z,1007.74
2022-10-13T02:09:37.764Z,1007.8
2022-10-13T02:10:37.758Z,1007.72
2022-10-13T02:11:37.752Z,1007.78
2022-10-13T02:12:37.732Z,1007.82
2022-10-13T02:13:37.720Z,1007.76
2022-10-13T02:14:37.737Z,1007.72
2022-10-13T02:15:37.722Z,1007.7
2022-10-13T02:16:37.698Z,1007.72
2022-10-13T02:17:37.683Z,1007.74
2022-10-13T02:18:37.677Z,1007.72
2022-10-13T02:19:37.662Z,1007.69
2022-10-13T02:20:37.655Z,1007.71
2022-10-13T02:21:37.639Z,1007.65
2022-10-13T02:22:37.640Z,1007.66
2022-10-13T02:23:37.620Z,1007.63
2022-10-13T02:24:37.608Z,1007.62
2022-10-13T02:25:37.600Z,1007.66
2022-10-13T02:26:37.588Z,1007.61
2022-10-13T02:27:37.577Z,1007.59
2022-10-13T02:28:37.573Z,1007.58
2022-10-13T02:29:37.552Z,1007.61
2022-10-13T02:30:37.553Z,1007.65
2022-10-13T02:31:37.534Z,1007.63
2022-10-13T02:32:37.522Z,1007.65
2022-10-13T02:33:37.517Z,1007.58
2022-10-13T02:34:37.498Z,1007.58
2022-10-13T02:35:37.492Z,1007.56
2022-10-13T02:36:37.484Z,1007.58
2022-10-13T02:37:37.468Z,1007.56
2022-10-13T02:38:37.461Z,1007.59
2022-10-13T02:39:37.445Z,1007.58
2022-10-13T02:40:37.435Z,1007.55
2022-10-13T02:41:37.434Z,1007.58
2022-10-13T02:42:37.414Z,1007.54
2022-10-13T02:43:37.402Z,1007.54
2022-10-13T02:44:37.390Z,1007.56
2022-10-13T02:45:37.396Z,1007.49
2022-10-13T02:46:37.370Z,1007.54
2022-10-13T02:47:37.384Z,1007.53
2022-10-13T02:48:37.353Z,1007.52
2022-10-13T02:49:37.339Z,1007.5
2022-10-13T02:50:37.336Z,1007.56
2022-10-13T02:51:37.316Z,1007.52
2022-10-13T02:52:37.304Z,1007.51
2022-10-13T02:53:37.299Z,1007.54
2022-10-13T02:54:37.291Z,1007.51
2022-10-13T02:55:37.269Z,1007.52
2022-10-13T02:56:37.264Z,1007.55
2022-10-13T02:57:37.255Z,1007.59
2022-10-13T02:58:37.239Z,1007.51
2022-10-13T02:59:37.233Z,1007.53
2022-10-13T03:00:37.218Z,1007.56
2022-10-13T03:01:37.211Z,1007.53
2022-10-13T03:02:37.193Z,1007.53
2022-10-13T03:03:37.185Z,1007.55
2022-10-13T03:04:37.180Z,1007.59
2022-10-13T03:05:37.162Z,1007.59
2022-10-13T03:06:37.150Z,1007.62
2022-10-13T03:07:37.140Z,1007.56
2022-10-13T03:08:37.133Z,1007.53
2022-10-13T03:09:37.149Z,1007.53
2022-10-13T03:10:37.112Z,1007.51
2022-10-13T03:11:37.103Z,1007.5
2022-10-13T03:12:37.085Z,1007.46
2022-10-13T03:13:37.078Z,1007.43
2022-10-13T03:14:37.072Z,1007.5
2022-10-13T03:15:37.057Z,1007.56
2022-10-13T03:16:37.049Z,1007.52
2022-10-13T03:17:37.033Z,1007.51
2022-10-13T03:18:37.023Z,1007.52
2022-10-13T03:19:37.012Z,1007.49
2022-10-13T03:20:37.005Z,1007.42
2022-10-13T03:21:36.995Z,1007.48
2022-10-13T03:22:36.978Z,1007.47
2022-10-13T03:23:36.970Z,1007.46
2022-10-13T03:24:36.983Z,1007.46
2022-10-13T03:25:36.945Z,1007.42
2022-10-13T03:26:36.939Z,1007.45
2022-10-13T03:27:36.936Z,1007.48
2022-10-13T03:28:36.920Z,1007.5
2022-10-13T03:29:36.904Z,1007.49
2022-10-13T03:30:36.897Z,1007.45
2022-10-13T03:31:36.886Z,1007.47
2022-10-13T03:32:36.878Z,1007.42
2022-10-13T03:33:36.869Z,1007.47
2022-10-13T03:34:36.853Z,1007.46
2022-10-13T03:35:36.841Z,1007.45
2022-10-13T03:36:36.833Z,1007.46
2022-10-13T03:37:36.818Z,1007.44
2022-10-13T03:38:36.811Z,1007.52
2022-10-13T03:39:36.797Z,1007.58
2022-10-13T03:40:36.789Z,1007.52
2022-10-13T03:41:36.780Z,1007.53
2022-10-13T03:42:36.773Z,1007.57
2022-10-13T03:43:36.758Z,1007.54
2022-10-13T03:44:36.745Z,1007.56
2022-10-13T03:45:36.743Z,1007.58
2022-10-13T03:46:36.725Z,1007.59
2022-10-13T03:47:36.718Z,1007.57
2022-10-13T03:48:36.703Z,1007.56
2022-10-13T03:49:36.691Z,1007.58
2022-10-13T03:50:36.693Z,1007.56
2022-10-13T03:51:36.679Z,1007.54
2022-10-13T03:52:36.672Z,1007.52
2022-10-13T03:53:36.652Z,1007.54
2022-10-13T03:54:36.666Z,1007.53
2022-10-13T03:55:36.634Z,1007.58
2022-10-13T03:56:36.619Z,1007.58
2022-10-13T03:57:36.609Z,1007.56
2022-10-13T03:58:36.610Z,1007.55
2022-10-13T03:59:36.586Z,1007.54
2022-10-13T04:00:36.571Z,1007.51
2022-10-13T04:01:36.562Z,1007.48
2022-10-13T04:02:36.549Z,1007.46
2022-10-13T04:03:36.543Z,1007.49
2022-10-13T04:04:36.530Z,1007.49
2022-10-13T04:05:36.527Z,1007.45
2022-10-13T04:06:36.507Z,1007.48
2022-10-13T04:07:36.492Z,1007.51
2022-10-13T04:08:36.483Z,1007.48
2022-10-13T04:09:36.472Z,1007.48
2022-10-13T04:10:36.464Z,1007.46
2022-10-13T04:11:36.454Z,1007.43
2022-10-13T04:12:36.476Z,1007.45
2022-10-13T04:13:36.482Z,1007.43
2022-10-13T04:14:36.429Z,1007.41
2022-10-13T04:15:36.406Z,1007.44
2022-10-13T04:16:36.404Z,1007.4
2022-10-13T04:17:36.390Z,1007.4
2022-10-13T04:18:36.379Z,1007.39
2022-10-13T04:19:36.368Z,1007.37
2022-10-13T04:20:36.355Z,1007.35
2022-10-13T04:21:36.354Z,1007.34
2022-10-13T04:22:36.333Z,1007.34
2022-10-13T04:23:36.325Z,1007.32
2022-10-13T04:24:36.312Z,1007.33
2022-10-13T04:25:36.301Z,1007.31
2022-10-13T04:26:36.303Z,1007.29
2022-10-13T04:27:36.288Z,1007.3
2022-10-13T04:28:36.294Z,1007.28
2022-10-13T04:29:36.264Z,1007.27
2022-10-13T04:30:36.249Z,1007.23
2022-10-13T04:31:36.295Z,1007.27
2022-10-13T04:32:36.235Z,1007.25
2022-10-13T04:33:36.237Z,1007.21
2022-10-13T04:34:36.206Z,1007.2
2022-10-13T04:35:36.227Z,1007.17
2022-10-13T04:36:36.222Z,1007.18
2022-10-13T04:37:36.177Z,1007.18
2022-10-13T04:38:36.166Z,1007.18
2022-10-13T04:39:36.163Z,1007.18
2022-10-13T04:40:36.170Z,1007.24
2022-10-13T04:41:36.161Z,1007.23
2022-10-13T04:42:36.125Z,1007.24
2022-10-13T04:43:36.135Z,1007.16
2022-10-13T04:44:36.105Z,1007.18
2022-10-13T04:45:36.122Z,1007.21
2022-10-13T04:46:36.093Z,1007.27
2022-10-13T04:47:36.120Z,1007.28
2022-10-13T04:48:36.061Z,1007.23
2022-10-13T04:49:36.046Z,1007.2
2022-10-13T04:50:36.051Z,1007.18
2022-10-13T04:51:36.045Z,1007.19
2022-10-13T04:52:36.025Z,1007.16
2022-10-13T04:53:36.016Z,1007.18
2022-10-13T04:54:36.003Z,1007.17
2022-10-13T04:55:35.994Z,1007.15
2022-10-13T04:56:35.992Z,1007.17
2022-10-13T04:57:35.979Z,1007.16
2022-10-13T04:58:35.964Z,1007.15
2022-10-13T04:59:35.956Z,1007.18
2022-10-13T05:00:35.935Z,1007.21
2022-10-13T05:01:35.952Z,1007.18
2022-10-13T05:02:35.910Z,1007.13
2022-10-13T05:03:35.902Z,1007.14
2022-10-13T05:04:35.913Z,1007.17
2022-10-13T05:05:35.880Z,1007.15
2022-10-13T05:06:35.887Z,1007.18
2022-10-13T05:07:35.863Z,1007.21
2022-10-13T05:08:35.853Z,1007.14
2022-10-13T05:09:35.846Z,1007.1
2022-10-13T05:10:35.834Z,1007.12
2022-10-13T05:11:35.825Z,1007.06
2022-10-13T05:12:35.813Z,1007.04
2022-10-13T05:13:35.798Z,1007.01
2022-10-13T05:14:35.779Z,1006.97
2022-10-13T05:15:35.786Z,1006.98
2022-10-13T05:16:35.759Z,1006.87
2022-10-13T05:17:35.753Z,1006.97
2022-10-13T05:18:35.737Z,1006.91
2022-10-13T05:19:35.728Z,1006.83
2022-10-13T05:20:35.720Z,1006.87
2022-10-13T05:21:35.713Z,1006.91
2022-10-13T05:22:35.708Z,1006.98
2022-10-13T05:23:35.868Z,1006.95
2022-10-13T05:24:35.699Z,1006.94
2022-10-13T05:25:35.734Z,1006.93
2022-10-13T05:26:35.683Z,1006.89
2022-10-13T05:27:35.654Z,1006.92
2022-10-13T05:28:35.665Z,1006.92
2022-10-13T05:29:35.630Z,1006.9
2022-10-13T05:30:35.615Z,1006.95
2022-10-13T05:31:35.605Z,1006.92
2022-10-13T05:32:35.597Z,1006.93
2022-10-13T05:33:35.592Z,1006.96
2022-10-13T05:34:35.577Z,1006.86
2022-10-13T05:35:35.615Z,1006.88
2022-10-13T05:36:35.550Z,1006.96
2022-10-13T05:37:35.544Z,1006.99
2022-10-13T05:38:35.538Z,1006.88
2022-10-13T05:39:35.530Z,1006.87
2022-10-13T05:40:35.515Z,1006.86
2022-10-13T05:41:35.505Z,1006.82
2022-10-13T05:42:35.483Z,1006.82
2022-10-13T05:43:35.478Z,1006.78
2022-10-13T05:44:35.475Z,1006.77
2022-10-13T05:45:35.480Z,1006.84
2022-10-13T05:46:35.446Z,1006.75
2022-10-13T05:47:35.441Z,1006.8
2022-10-13T05:48:35.433Z,1006.73
2022-10-13T05:49:35.424Z,1006.74
2022-10-13T05:50:35.441Z,1006.74
2022-10-13T05:51:35.399Z,1006.8
2022-10-13T05:52:35.399Z,1006.82
2022-10-13T05:53:35.373Z,1006.79
2022-10-13T05:54:35.363Z,1006.83
2022-10-13T05:55:35.348Z,1006.86
2022-10-13T05:56:35.339Z,1006.78
2022-10-13T05:57:35.341Z,1006.83
2022-10-13T05:58:35.425Z,1006.88
2022-10-13T05:59:35.308Z,1006.79
2022-10-13T06:00:35.303Z,1006.75
2022-10-13T06:01:35.281Z,1006.71
2022-10-13T06:02:35.273Z,1006.78
2022-10-13T06:03:35.264Z,1006.75
2022-10-13T06:04:35.249Z,1006.72
2022-10-13T06:05:35.240Z,1006.68
2022-10-13T06:06:35.239Z,1006.65
2022-10-13T06:07:35.229Z,1006.63
2022-10-13T06:08:35.218Z,1006.67
2022-10-13T06:09:35.212Z,1006.64
2022-10-13T06:10:35.193Z,1006.71
2022-10-13T06:11:35.180Z,1006.71
2022-10-13T06:12:35.191Z,1006.74
2022-10-13T06:13:35.157Z,1006.72
2022-10-13T06:14:35.159Z,1006.79
2022-10-13T06:15:35.134Z,1006.8
2022-10-13T06:16:35.127Z,1006.82
2022-10-13T06:17:35.120Z,1006.81
2022-10-13T06:18:35.102Z,1006.8
2022-10-13T06:19:35.089Z,1006.82
2022-10-13T06:20:35.078Z,1006.81
2022-10-13T06:21:35.064Z,1006.81
2022-10-13T06:22:35.058Z,1006.78
2022-10-13T06:23:35.045Z,1006.81
2022-10-13T06:24:35.035Z,1006.83
2022-10-13T06:25:35.030Z,1006.79
2022-10-13T06:26:35.011Z,1006.74
2022-10-13T06:27:35.008Z,1006.76
2022-10-13T06:28:34.997Z,1006.75
2022-10-13T06:29:34.989Z,1006.71
2022-10-13T06:30:34.983Z,1006.7
2022-10-13T06:31:34.965Z,1006.76
2022-10-13T06:32:34.948Z,1006.77
2022-10-13T06:33:34.947Z,1006.72
2022-10-13T06:34:34.941Z,1006.76
2022-10-13T06:35:34.916Z,1006.77
2022-10-13T06:36:34.907Z,1006.71
2022-10-13T06:37:34.897Z,1006.71
2022-10-13T06:38:34.904Z,1006.75
2022-10-13T06:39:34.876Z,1006.78
2022-10-13T06:40:34.863Z,1006.77
2022-10-13T06:41:34.853Z,1006.74
2022-10-13T06:42:34.847Z,1006.75
2022-10-13T06:43:34.838Z,1006.83
2022-10-13T06:44:34.826Z,1006.81
2022-10-13T06:45:34.812Z,1006.8
2022-10-13T06:46:34.816Z,1006.91
2022-10-13T06:47:34.789Z,1006.79
2022-10-13T06:48:34.785Z,1006.84
2022-10-13T06:49:34.771Z,1006.79
2022-10-13T06:50:34.760Z,1006.73
2022-10-13T06:51:34.757Z,1006.84
2022-10-13T06:52:34.746Z,1006.87
2022-10-13T06:53:34.732Z,1006.82
2022-10-13T06:54:34.718Z,1006.78
2022-10-13T06:55:34.712Z,1006.77
2022-10-13T06:56:34.720Z,1006.84
2022-10-13T06:57:34.687Z,1006.8
2022-10-13T06:58:34.681Z,1006.8
2022-10-13T06:59:34.702Z,1006.66
2022-10-13T07:00:34.662Z,1006.61
2022-10-13T07:01:35.473Z,1006.54
2022-10-13T07:02:34.645Z,1006.58
2022-10-13T07:03:34.628Z,1006.59
2022-10-13T07:04:34.623Z,1006.59
2022-10-13T07:05:34.607Z,1006.63
2022-10-13T07:06:34.591Z,1006.61
2022-10-13T07:07:34.620Z,1006.68
2022-10-13T07:08:34.576Z,1006.63
2022-10-13T07:09:34.563Z,1006.61
2022-10-13T07:10:34.555Z,1006.67
2022-10-13T07:11:34.545Z,1006.66
2022-10-13T07:12:34.540Z,1006.62
2022-10-13T07:13:34.524Z,1006.63
2022-10-13T07:14:34.524Z,1006.6
2022-10-13T07:15:34.499Z,1006.53
2022-10-13T07:16:34.486Z,1006.57
2022-10-13T07:17:34.500Z,1006.63
2022-10-13T07:18:34.478Z,1006.68
2022-10-13T07:19:34.457Z,1006.62
2022-10-13T07:20:34.441Z,1006.63
2022-10-13T07:21:34.435Z,1006.59
2022-10-13T07:22:34.429Z,1006.58
2022-10-13T07:23:34.410Z,1006.55
2022-10-13T07:24:34.396Z,1006.58
2022-10-13T07:25:34.388Z,1006.51
2022-10-13T07:26:34.376Z,1006.52
2022-10-13T07:27:34.392Z,1006.46
2022-10-13T07:28:34.353Z,1006.43
2022-10-13T07:29:34.345Z,1006.46
2022-10-13T07:30:34.332Z,1006.51
2022-10-13T07:31:34.325Z,1006.6
2022-10-13T07:32:34.315Z,1006.59
2022-10-13T07:33:34.300Z,1006.54
2022-10-13T07:34:34.289Z,1006.53
2022-10-13T07:35:34.277Z,1006.5
2022-10-13T07:36:34.280Z,1006.46
2022-10-13T07:37:34.268Z,1006.49
2022-10-13T07:38:34.263Z,1006.52
2022-10-13T07:39:34.235Z,1006.49
2022-10-13T07:40:34.238Z,1006.5
2022-10-13T07:41:34.220Z,1006.48
2022-10-13T07:42:34.251Z,1006.44
2022-10-13T07:43:34.199Z,1006.48
2022-10-13T07:44:34.220Z,1006.46
2022-10-13T07:45:34.186Z,1006.54
2022-10-13T07:46:34.165Z,1006.5
2022-10-13T07:47:34.148Z,1006.57
2022-10-13T07:48:34.143Z,1006.57
2022-10-13T07:49:34.131Z,1006.53
2022-10-13T07:50:34.117Z,1006.53
2022-10-13T07:51:34.107Z,1006.47
2022-10-13T07:52:34.101Z,1006.43
2022-10-13T07:53:34.087Z,1006.44
2022-10-13T07:54:34.077Z,1006.44
2022-10-13T07:55:34.067Z,1006.44
2022-10-13T07:56:34.081Z,1006.48
2022-10-13T07:57:34.048Z,1006.47
2022-10-13T07:58:34.032Z,1006.43
2022-10-13T07:59:34.022Z,1006.47
2022-10-13T08:00:34.014Z,1006.44
2022-10-13T08:01:34.077Z,1006.5
2022-10-13T08:02:33.989Z,1006.57
2022-10-13T08:03:33.984Z,1006.55
2022-10-13T08:04:33.993Z,1006.54
2022-10-13T08:05:33.958Z,1006.47
2022-10-13T08:06:33.953Z,1006.45
2022-10-13T08:07:33.942Z,1006.5
2022-10-13T08:08:33.938Z,1006.53
2022-10-13T08:09:33.913Z,1006.59
2022-10-13T08:10:33.933Z,1006.57
2022-10-13T08:11:33.909Z,1006.56
2022-10-13T08:12:33.887Z,1006.54
2022-10-13T08:13:33.900Z,1006.51
2022-10-13T08:14:33.903Z,1006.46
2022-10-13T08:15:33.866Z,1006.53
2022-10-13T08:16:33.835Z,1006.53
2022-10-13T08:17:33.840Z,1006.41
2022-10-13T08:18:33.816Z,1006.42
2022-10-13T08:19:33.813Z,1006.44
2022-10-13T08:20:33.792Z,1006.43
2022-10-13T08:21:33.818Z,1006.43
2022-10-13T08:22:33.774Z,1006.34
2022-10-13T08:23:33.761Z,1006.41
2022-10-13T08:24:33.752Z,1006.36
2022-10-13T08:25:33.742Z,1006.38
2022-10-13T08:26:33.732Z,1006.39
2022-10-13T08:27:33.720Z,1006.43
2022-10-13T08:28:33.707Z,1006.48
2022-10-13T08:29:33.706Z,1006.42
2022-10-13T08:30:33.684Z,1006.45
2022-10-13T08:31:33.677Z,1006.35
2022-10-13T08:32:33.666Z,1006.48
2022-10-13T08:33:33.658Z,1006.5
2022-10-13T08:34:33.645Z,1006.45
2022-10-13T08:35:33.645Z,1006.41
2022-10-13T08:36:33.654Z,1006.47
2022-10-13T08:37:33.665Z,1006.47
2022-10-13T08:38:33.597Z,1006.42
2022-10-13T08:39:33.589Z,1006.45
2022-10-13T08:40:33.593Z,1006.41
2022-10-13T08:41:33.592Z,1006.47
2022-10-13T08:42:33.554Z,1006.45
2022-10-13T08:43:33.587Z,1006.45
2022-10-13T08:44:33.540Z,1006.49
2022-10-13T08:45:33.530Z,1006.5
2022-10-13T08:46:33.522Z,1006.46
2022-10-13T08:47:33.510Z,1006.43
2022-10-13T08:48:33.495Z,1006.47
2022-10-13T08:49:33.479Z,1006.46
2022-10-13T08:50:33.527Z,1006.47
2022-10-13T08:51:33.463Z,1006.44
2022-10-13T08:52:33.445Z,1006.46
2022-10-13T08:53:33.443Z,1006.57
2022-10-13T08:54:33.428Z,1006.5
2022-10-13T08:55:33.418Z,1006.43
2022-10-13T08:56:33.407Z,1006.41
2022-10-13T08:57:33.400Z,1006.39
2022-10-13T08:58:33.405Z,1006.37
2022-10-13T08:59:33.416Z,1006.46
2022-10-13T09:00:33.381Z,1006.45
2022-10-13T09:01:33.355Z,1006.45
2022-10-13T09:02:33.344Z,1006.4
2022-10-13T09:03:33.342Z,1006.42
2022-10-13T09:04:33.339Z,1006.34
2022-10-13T09:05:33.318Z,1006.38
2022-10-13T09:06:33.299Z,1006.46
2022-10-13T09:07:33.286Z,1006.41
2022-10-13T09:08:33.279Z,1006.44
2022-10-13T09:09:33.261Z,1006.49
2022-10-13T09:10:33.253Z,1006.48
2022-10-13T09:11:33.242Z,1006.46
2022-10-13T09:12:33.239Z,1006.43
2022-10-13T09:13:33.225Z,1006.41
2022-10-13T09:14:33.217Z,1006.45
2022-10-13T09:15:33.228Z,1006.43
2022-10-13T09:16:33.222Z,1006.43
2022-10-13T09:17:33.178Z,1006.45
2022-10-13T09:18:33.171Z,1006.38
2022-10-13T09:19:33.156Z,1006.32
2022-10-13T09:20:33.154Z,1006.34
2022-10-13T09:21:33.137Z,1006.34
2022-10-13T09:22:33.130Z,1006.31
2022-10-13T09:23:33.124Z,1006.33
2022-10-13T09:24:33.132Z,1006.35
2022-10-13T09:25:33.092Z,1006.31
2022-10-13T09:26:33.082Z,1006.36
2022-10-13T09:27:33.069Z,1006.34
2022-10-13T09:28:33.057Z,1006.26
2022-10-13T09:29:33.049Z,1006.28
2022-10-13T09:30:33.103Z,1006.34
2022-10-13T09:31:33.960Z,1006.4
2022-10-13T09:32:33.018Z,1006.39
2022-10-13T09:33:33.007Z,1006.31
2022-10-13T09:34:32.995Z,1006.36
2022-10-13T09:35:32.986Z,1006.35
2022-10-13T09:36:32.977Z,1006.37
2022-10-13T09:37:32.979Z,1006.39
2022-10-13T09:38:32.959Z,1006.37
2022-10-13T09:39:32.954Z,1006.38
2022-10-13T09:40:32.971Z,1006.3
2022-10-13T09:41:32.922Z,1006.33
2022-10-13T09:42:32.910Z,1006.34
2022-10-13T09:43:32.910Z,1006.26
2022-10-13T09:44:32.895Z,1006.3
2022-10-13T09:45:32.890Z,1006.28
2022-10-13T09:46:32.863Z,1006.37
2022-10-13T09:47:32.859Z,1006.29
2022-10-13T09:48:32.846Z,1006.29
2022-10-13T09:49:32.837Z,1006.3
2022-10-13T09:50:32.826Z,1006.25
2022-10-13T09:51:32.821Z,1006.25
2022-10-13T09:52:32.803Z,1006.25
2022-10-13T09:53:32.811Z,1006.27
2022-10-13T09:54:32.780Z,1006.29
2022-10-13T09:55:32.769Z,1006.2
2022-10-13T09:56:32.760Z,1006.24
2022-10-13T09:57:32.744Z,1006.22
2022-10-13T09:58:32.753Z,1006.16
2022-10-13T09:59:32.732Z,1006.14
2022-10-13T10:00:32.718Z,1006.18
2022-10-13T10:01:32.707Z,1006.21
2022-10-13T10:02:32.743Z,1006.2
2022-10-13T10:03:32.704Z,1006.21
2022-10-13T10:04:32.692Z,1006.16
2022-10-13T10:05:32.697Z,1006.15
2022-10-13T10:06:32.655Z,1006.13
2022-10-13T10:07:32.664Z,1006.19
2022-10-13T10:08:32.655Z,1006.16
2022-10-13T10:09:32.661Z,1006.12
2022-10-13T10:10:32.701Z,1006.07
2022-10-13T10:11:32.609Z,1006.02
2022-10-13T10:12:32.701Z,1005.99
2022-10-13T10:13:32.609Z,1005.98
2022-10-13T10:14:32.583Z,1005.96
2022-10-13T10:15:32.587Z,1005.93
2022-10-13T10:16:32.565Z,1005.99
2022-10-13T10:17:32.547Z,1005.97
2022-10-13T10:18:32.559Z,1005.99
2022-10-13T10:19:32.513Z,1005.94
2022-10-13T10:20:32.509Z,1005.97
2022-10-13T10:21:32.508Z,1005.95
2022-10-13T10:22:32.543Z,1005.93
2022-10-13T10:23:32.468Z,1005.88
2022-10-13T10:24:32.480Z,1005.87
2022-10-13T10:25:32.455Z,1005.9
2022-10-13T10:26:32.436Z,1005.88
2022-10-13T10:27:32.440Z,1005.85
2022-10-13T10:28:32.411Z,1005.83
2022-10-13T10:29:32.428Z,1005.86
2022-10-13T10:30:33.443Z,1005.85
2022-10-13T10:31:32.381Z,1005.82
2022-10-13T10:32:32.438Z,1005.81
2022-10-13T10:33:32.378Z,1005.75
2022-10-13T10:34:32.410Z,1005.74
2022-10-13T10:35:32.354Z,1005.72
2022-10-13T10:36:32.338Z,1005.66
2022-10-13T10:37:32.331Z,1005.66
2022-10-13T10:38:32.473Z,1005.59
2022-10-13T10:39:33.311Z,1005.62
2022-10-13T10:40:32.348Z,1005.63
2022-10-13T10:41:32.457Z,1005.62
2022-10-13T10:42:33.512Z,1005.57
2022-10-13T10:43:32.304Z,1005.6
2022-10-13T10:44:33.295Z,1005.63
2022-10-13T10:45:32.243Z,1005.64
2022-10-13T10:46:32.227Z,1005.66
2022-10-13T10:47:32.204Z,1005.6
2022-10-13T10:48:32.220Z,1005.62
2022-10-13T10:49:32.209Z,1005.62
2022-10-13T10:50:32.178Z,1005.62
2022-10-13T10:51:32.179Z,1005.63
2022-10-13T10:52:32.171Z,1005.58
2022-10-13T10:53:32.143Z,1005.52
2022-10-13T10:54:32.132Z,1005.51
2022-10-13T10:55:32.142Z,1005.54
2022-10-13T10:56:32.110Z,1005.59
2022-10-13T10:57:32.095Z,1005.52
2022-10-13T10:58:32.089Z,1005.54
2022-10-13T10:59:32.070Z,1005.47
2022-10-13T11:00:32.087Z,1005.48
2022-10-13T11:01:32.072Z,1005.5
2022-10-13T11:02:32.055Z,1005.45
2022-10-13T11:03:32.130Z,1005.39
2022-10-13T11:04:32.024Z,1005.42
2022-10-13T11:05:32.006Z,1005.44
2022-10-13T11:06:32.035Z,1005.35
2022-10-13T11:07:31.997Z,1005.26
2022-10-13T11:08:31.997Z,1005.26
2022-10-13T11:09:32.010Z,1005.33
2022-10-13T11:10:31.956Z,1005.27
2022-10-13T11:11:31.947Z,1005.35
2022-10-13T11:12:31.935Z,1005.35
2022-10-13T11:13:31.921Z,1005.31
2022-10-13T11:14:31.973Z,1005.3
2022-10-13T11:15:31.900Z,1005.31
2022-10-13T11:16:31.907Z,1005.22
2022-10-13T11:17:31.877Z,1005.28
2022-10-13T11:18:31.869Z,1005.31
2022-10-13T11:19:31.885Z,1005.5
2022-10-13T11:20:31.880Z,1005.2
2022-10-13T11:21:31.888Z,1005.1
2022-10-13T11:22:31.844Z,1005.47
2022-10-13T11:23:31.846Z,1005.33
2022-10-13T11:24:31.814Z,1005.16
2022-10-13T11:25:31.794Z,1005.15
2022-10-13T11:26:31.854Z,1005.03
2022-10-13T11:27:31.776Z,1005.08
2022-10-13T11:28:31.771Z,1005.11
2022-10-13T11:29:31.769Z,1005.05
2022-10-13T11:30:31.763Z,1005.2
2022-10-13T11:31:31.775Z,1005.2
2022-10-13T11:32:31.721Z,1005.02
2022-10-13T11:33:31.717Z,1005.1
2022-10-13T11:34:31.705Z,1005.21
2022-10-13T11:35:31.701Z,1005
2022-10-13T11:36:31.682Z,1004.91
2022-10-13T11:37:31.672Z,1005.02
2022-10-13T11:38:31.689Z,1005
2022-10-13T11:40:31.723Z,1005.02
2022-10-13T11:41:31.635Z,1005
2022-10-13T11:42:31.626Z,1004.9
2022-10-13T11:43:31.695Z,1004.93
2022-10-13T11:44:31.602Z,1004.93
2022-10-13T11:45:31.602Z,1004.93
2022-10-13T11:46:31.573Z,1004.98
2022-10-13T11:47:31.582Z,1005.01
2022-10-13T11:48:31.597Z,1004.96
2022-10-13T11:49:31.541Z,1004.97
2022-10-13T11:50:31.531Z,1004.96
2022-10-13T11:51:31.584Z,1004.94
2022-10-13T11:52:31.513Z,1004.91
2022-10-13T11:53:31.497Z,1004.95
2022-10-13T11:54:31.485Z,1004.96
2022-10-13T11:55:31.494Z,1005
2022-10-13T11:56:31.476Z,1005.03
2022-10-13T11:57:31.456Z,1004.86
2022-10-13T11:58:31.449Z,1004.77
2022-10-13T11:59:31.429Z,1004.84
2022-10-13T12:00:31.432Z,1004.95
2022-10-13T12:01:31.440Z,1004.92
2022-10-13T12:02:31.445Z,1004.86
2022-10-13T12:03:31.383Z,1004.87
2022-10-13T12:04:31.385Z,1004.77
2022-10-13T12:05:31.370Z,1004.71
2022-10-13T12:06:31.354Z,1004.77
2022-10-13T12:07:31.362Z,1004.9
2022-10-13T12:08:31.337Z,1004.7
2022-10-13T12:09:31.326Z,1004.73